sensor_id;sensor_type;location;lat;lon;timestamp;pressure;altitude;pressure_sealevel;temperature;humidity
73681;BME280;61979;53.536;8.082;2022-07-29T00:00:46;102187.16;;;15.80;70.59
73681;BME280;61979;53.536;8.082;2022-07-29T00:01:46;102186.34;;;15.78;71.06
73681;BME280;61979;53.536;8.082;2022-07-29T00:02:47;102184.72;;;15.71;71.59
73681;BME280;61979;53.536;8.082;2022-07-29T00:03:47;102184.66;;;15.76;71.15
73681;BME280;61979;53.536;8.082;2022-07-29T00:04:48;102195.75;;;15.79;70.95
73681;BME280;61979;53.536;8.082;2022-07-29T00:05:48;102183.75;;;15.81;70.89
73681;BME280;61979;53.536;8.082;2022-07-29T00:06:48;102188.03;;;15.79;70.81
73681;BME280;61979;53.536;8.082;2022-07-29T00:07:49;102182.91;;;15.81;70.90
73681;BME280;61979;53.536;8.082;2022-07-29T00:08:49;102180.38;;;15.76;70.91
73681;BME280;61979;53.536;8.082;2022-07-29T00:09:50;102182.94;;;15.76;70.67
73681;BME280;61979;53.536;8.082;2022-07-29T00:10:50;102181.19;;;15.81;70.84
73681;BME280;61979;53.536;8.082;2022-07-29T00:11:50;102178.69;;;15.75;70.80
73681;BME280;61979;53.536;8.082;2022-07-29T00:12:51;102180.44;;;15.73;71.13
73681;BME280;61979;53.536;8.082;2022-07-29T00:13:51;102182.06;;;15.77;70.71
73681;BME280;61979;53.536;8.082;2022-07-29T00:14:53;102177.69;;;15.85;70.65
73681;BME280;61979;53.536;8.082;2022-07-29T00:15:53;102176.88;;;15.83;70.45
73681;BME280;61979;53.536;8.082;2022-07-29T00:16:54;102181.25;;;15.74;71.08
73681;BME280;61979;53.536;8.082;2022-07-29T00:17:54;102178.72;;;15.72;71.29
73681;BME280;61979;53.536;8.082;2022-07-29T00:18:55;102177.84;;;15.73;71.13
73681;BME280;61979;53.536;8.082;2022-07-29T00:19:55;102180.44;;;15.70;71.76
73681;BME280;61979;53.536;8.082;2022-07-29T00:20:55;102176.13;;;15.74;70.96
73681;BME280;61979;53.536;8.082;2022-07-29T00:21:56;102177.00;;;15.74;71.16
73681;BME280;61979;53.536;8.082;2022-07-29T00:22:56;102179.50;;;15.79;70.99
73681;BME280;61979;53.536;8.082;2022-07-29T00:23:56;102170.03;;;15.79;70.73
73681;BME280;61979;53.536;8.082;2022-07-29T00:24:57;102173.50;;;15.78;70.88
73681;BME280;61979;53.536;8.082;2022-07-29T00:25:57;102170.97;;;15.77;71.27
73681;BME280;61979;53.536;8.082;2022-07-29T00:26:57;102170.16;;;15.70;71.25
73681;BME280;61979;53.536;8.082;2022-07-29T00:27:58;102170.09;;;15.76;70.90
73681;BME280;61979;53.536;8.082;2022-07-29T00:28:59;102165.88;;;15.71;71.26
73681;BME280;61979;53.536;8.082;2022-07-29T00:30:00;102169.34;;;15.68;71.21
73681;BME280;61979;53.536;8.082;2022-07-29T00:31:00;102167.59;;;15.72;71.47
73681;BME280;61979;53.536;8.082;2022-07-29T00:32:01;102171.84;;;15.74;71.41
73681;BME280;61979;53.536;8.082;2022-07-29T00:33:01;102163.31;;;15.72;71.03
73681;BME280;61979;53.536;8.082;2022-07-29T00:34:02;102165.78;;;15.78;71.35
73681;BME280;61979;53.536;8.082;2022-07-29T00:35:03;102169.28;;;15.71;71.78
73681;BME280;61979;53.536;8.082;2022-07-29T00:36:22;102156.47;;;15.68;71.81
73681;BME280;61979;53.536;8.082;2022-07-29T00:37:23;102162.50;;;15.69;71.80
73681;BME280;61979;53.536;8.082;2022-07-29T00:38:23;102164.94;;;15.76;71.28
73681;BME280;61979;53.536;8.082;2022-07-29T00:39:23;102164.13;;;15.73;71.07
73681;BME280;61979;53.536;8.082;2022-07-29T00:40:24;102156.44;;;15.71;71.86
73681;BME280;61979;53.536;8.082;2022-07-29T00:41:24;102165.00;;;15.73;71.67
73681;BME280;61979;53.536;8.082;2022-07-29T00:42:25;102163.31;;;15.72;71.77
73681;BME280;61979;53.536;8.082;2022-07-29T00:43:25;102162.38;;;15.76;71.35
73681;BME280;61979;53.536;8.082;2022-07-29T00:44:26;102159.06;;;15.68;71.85
73681;BME280;61979;53.536;8.082;2022-07-29T00:45:26;102158.16;;;15.72;71.53
73681;BME280;61979;53.536;8.082;2022-07-29T00:46:26;102166.75;;;15.68;71.93
73681;BME280;61979;53.536;8.082;2022-07-29T00:47:27;102159.94;;;15.67;71.61
73681;BME280;61979;53.536;8.082;2022-07-29T00:48:30;102159.88;;;15.70;71.79
73681;BME280;61979;53.536;8.082;2022-07-29T00:49:31;102162.44;;;15.70;71.78
73681;BME280;61979;53.536;8.082;2022-07-29T00:50:32;102159.97;;;15.64;72.14
73681;BME280;61979;53.536;8.082;2022-07-29T00:51:35;102159.13;;;15.64;72.17
73681;BME280;61979;53.536;8.082;2022-07-29T00:52:38;102159.13;;;15.64;72.14
73681;BME280;61979;53.536;8.082;2022-07-29T00:53:39;102159.09;;;15.65;72.24
73681;BME280;61979;53.536;8.082;2022-07-29T00:54:39;102163.38;;;15.66;71.86
73681;BME280;61979;53.536;8.082;2022-07-29T00:55:40;102165.94;;;15.65;72.16
73681;BME280;61979;53.536;8.082;2022-07-29T00:56:40;102157.41;;;15.64;72.32
73681;BME280;61979;53.536;8.082;2022-07-29T00:57:42;102158.25;;;15.63;72.10
73681;BME280;61979;53.536;8.082;2022-07-29T00:58:43;102153.16;;;15.60;72.44
73681;BME280;61979;53.536;8.082;2022-07-29T00:59:44;102158.25;;;15.63;72.30
73681;BME280;61979;53.536;8.082;2022-07-29T01:00:44;102159.94;;;15.67;72.19
73681;BME280;61979;53.536;8.082;2022-07-29T01:01:45;102162.50;;;15.67;72.23
73681;BME280;61979;53.536;8.082;2022-07-29T01:02:46;102148.75;;;15.70;71.83
73681;BME280;61979;53.536;8.082;2022-07-29T01:03:48;102155.66;;;15.66;72.39
73681;BME280;61979;53.536;8.082;2022-07-29T01:04:49;102150.56;;;15.62;72.79
73681;BME280;61979;53.536;8.082;2022-07-29T01:05:50;102144.56;;;15.64;72.37
73681;BME280;61979;53.536;8.082;2022-07-29T01:06:54;102148.78;;;15.67;72.65
73681;BME280;61979;53.536;8.082;2022-07-29T01:07:55;102147.91;;;15.69;72.44
73681;BME280;61979;53.536;8.082;2022-07-29T01:08:57;102144.50;;;15.67;72.18
73681;BME280;61979;53.536;8.082;2022-07-29T01:09:58;102142.81;;;15.66;71.82
73681;BME280;61979;53.536;8.082;2022-07-29T01:10:59;102150.56;;;15.62;72.17
73681;BME280;61979;53.536;8.082;2022-07-29T01:12:01;102141.13;;;15.62;72.51
73681;BME280;61979;53.536;8.082;2022-07-29T01:13:02;102146.19;;;15.68;72.48
73681;BME280;61979;53.536;8.082;2022-07-29T01:14:03;102136.78;;;15.69;72.05
73681;BME280;61979;53.536;8.082;2022-07-29T01:15:07;102145.38;;;15.65;72.40
73681;BME280;61979;53.536;8.082;2022-07-29T01:16:21;102137.69;;;15.63;72.20
73681;BME280;61979;53.536;8.082;2022-07-29T01:17:41;102130.88;;;15.61;72.36
73681;BME280;61979;53.536;8.082;2022-07-29T01:18:46;102133.56;;;15.52;72.61
73681;BME280;61979;53.536;8.082;2022-07-29T01:26:47;102124.19;;;15.46;72.78
73681;BME280;61979;53.536;8.082;2022-07-29T01:28:08;102121.56;;;15.52;72.60
73681;BME280;61979;53.536;8.082;2022-07-29T01:29:32;102119.69;;;15.63;71.69
73681;BME280;61979;53.536;8.082;2022-07-29T01:30:38;102120.59;;;15.61;72.11
73681;BME280;61979;53.536;8.082;2022-07-29T01:31:47;102115.47;;;15.59;72.08
73681;BME280;61979;53.536;8.082;2022-07-29T01:32:53;102113.81;;;15.55;71.96
73681;BME280;61979;53.536;8.082;2022-07-29T01:34:02;102111.19;;;15.60;71.74
73681;BME280;61979;53.536;8.082;2022-07-29T01:35:08;102111.09;;;15.66;71.61
73681;BME280;61979;53.536;8.082;2022-07-29T01:36:13;102108.56;;;15.64;71.44
73681;BME280;61979;53.536;8.082;2022-07-29T01:38:21;102099.19;;;15.59;71.79
73681;BME280;61979;53.536;8.082;2022-07-29T01:39:29;102104.31;;;15.59;72.13
73681;BME280;61979;53.536;8.082;2022-07-29T01:40:36;102099.22;;;15.57;72.72
73681;BME280;61979;53.536;8.082;2022-07-29T01:41:43;102100.88;;;15.63;72.03
73681;BME280;61979;53.536;8.082;2022-07-29T01:43:11;102102.63;;;15.61;71.95
73681;BME280;61979;53.536;8.082;2022-07-29T01:44:19;102104.38;;;15.56;72.30
73681;BME280;61979;53.536;8.082;2022-07-29T01:45:24;102099.22;;;15.57;72.85
73681;BME280;61979;53.536;8.082;2022-07-29T01:46:38;102096.69;;;15.54;72.60
73681;BME280;61979;53.536;8.082;2022-07-29T01:47:52;102100.13;;;15.53;72.38
73681;BME280;61979;53.536;8.082;2022-07-29T01:48:58;102086.41;;;15.54;72.26
73681;BME280;61979;53.536;8.082;2022-07-29T01:50:00;102094.91;;;15.59;71.77
73681;BME280;61979;53.536;8.082;2022-07-29T01:51:14;102094.03;;;15.62;72.12
73681;BME280;61979;53.536;8.082;2022-07-29T01:53:43;102089.81;;;15.56;72.60
73681;BME280;61979;53.536;8.082;2022-07-29T01:54:55;102093.25;;;15.55;71.99
73681;BME280;61979;53.536;8.082;2022-07-29T01:55:59;102088.06;;;15.58;72.63
73681;BME280;61979;53.536;8.082;2022-07-29T01:57:01;102089.72;;;15.64;72.24
73681;BME280;61979;53.536;8.082;2022-07-29T01:58:04;102094.00;;;15.63;71.82
73681;BME280;61979;53.536;8.082;2022-07-29T01:59:07;102089.78;;;15.59;72.41
73681;BME280;61979;53.536;8.082;2022-07-29T02:00:08;102092.44;;;15.52;73.08
73681;BME280;61979;53.536;8.082;2022-07-29T02:01:10;102084.75;;;15.50;73.08
73681;BME280;61979;53.536;8.082;2022-07-29T02:02:15;102091.53;;;15.57;72.42
73681;BME280;61979;53.536;8.082;2022-07-29T02:03:17;102087.19;;;15.61;72.31
73681;BME280;61979;53.536;8.082;2022-07-29T02:04:19;102088.91;;;15.60;72.50
73681;BME280;61979;53.536;8.082;2022-07-29T02:05:22;102080.31;;;15.61;71.76
73681;BME280;61979;53.536;8.082;2022-07-29T02:06:25;102081.25;;;15.57;72.13
73681;BME280;61979;53.536;8.082;2022-07-29T02:07:28;102087.19;;;15.59;72.47
73681;BME280;61979;53.536;8.082;2022-07-29T02:08:30;102082.94;;;15.60;72.01
73681;BME280;61979;53.536;8.082;2022-07-29T02:09:34;102081.25;;;15.57;72.49
73681;BME280;61979;53.536;8.082;2022-07-29T02:10:37;102075.13;;;15.66;71.53
73681;BME280;61979;53.536;8.082;2022-07-29T02:11:40;102082.00;;;15.62;72.55
73681;BME280;61979;53.536;8.082;2022-07-29T02:12:42;102074.41;;;15.53;72.67
73681;BME280;61979;53.536;8.082;2022-07-29T02:13:44;102070.13;;;15.55;72.71
73681;BME280;61979;53.536;8.082;2022-07-29T02:14:52;102078.63;;;15.59;72.08
73681;BME280;61979;53.536;8.082;2022-07-29T02:15:53;102078.66;;;15.57;72.53
73681;BME280;61979;53.536;8.082;2022-07-29T02:16:55;102070.84;;;15.66;71.59
73681;BME280;61979;53.536;8.082;2022-07-29T02:18:09;102069.97;;;15.67;72.20
73681;BME280;61979;53.536;8.082;2022-07-29T02:19:12;102067.38;;;15.67;71.41
73681;BME280;61979;53.536;8.082;2022-07-29T02:20:13;102064.06;;;15.59;72.03
73681;BME280;61979;53.536;8.082;2022-07-29T02:21:15;102060.69;;;15.57;72.32
73681;BME280;61979;53.536;8.082;2022-07-29T02:22:20;102063.25;;;15.54;72.32
73681;BME280;61979;53.536;8.082;2022-07-29T02:23:22;102066.75;;;15.50;72.56
73681;BME280;61979;53.536;8.082;2022-07-29T02:24:24;102061.50;;;15.58;71.89
73681;BME280;61979;53.536;8.082;2022-07-29T02:25:26;102051.22;;;15.58;72.26
73681;BME280;61979;53.536;8.082;2022-07-29T02:26:29;102063.19;;;15.60;71.83
73681;BME280;61979;53.536;8.082;2022-07-29T02:27:30;102048.72;;;15.53;72.14
73681;BME280;61979;53.536;8.082;2022-07-29T02:28:32;102058.19;;;15.51;72.27
73681;BME280;61979;53.536;8.082;2022-07-29T02:29:34;102053.97;;;15.46;72.57
73681;BME280;61979;53.536;8.082;2022-07-29T02:30:39;102059.13;;;15.44;72.58
73681;BME280;61979;53.536;8.082;2022-07-29T02:31:41;102053.22;;;15.38;72.86
73681;BME280;61979;53.536;8.082;2022-07-29T02:32:44;102053.97;;;15.46;72.54
73681;BME280;61979;53.536;8.082;2022-07-29T02:33:46;102052.25;;;15.46;73.23
73681;BME280;61979;53.536;8.082;2022-07-29T02:34:49;102054.84;;;15.45;72.74
73681;BME280;61979;53.536;8.082;2022-07-29T02:35:50;102060.00;;;15.43;72.24
73681;BME280;61979;53.536;8.082;2022-07-29T02:36:53;102052.28;;;15.45;72.53
73681;BME280;61979;53.536;8.082;2022-07-29T02:37:55;102054.84;;;15.45;72.39
73681;BME280;61979;53.536;8.082;2022-07-29T02:39:14;102054.09;;;15.38;72.72
73681;BME280;61979;53.536;8.082;2022-07-29T02:40:16;102051.47;;;15.41;72.20
73681;BME280;61979;53.536;8.082;2022-07-29T02:41:41;102049.72;;;15.43;72.12
73681;BME280;61979;53.536;8.082;2022-07-29T02:42:43;102047.97;;;15.45;71.92
73681;BME280;61979;53.536;8.082;2022-07-29T02:43:47;102051.41;;;15.47;71.71
73681;BME280;61979;53.536;8.082;2022-07-29T02:44:48;102046.22;;;15.49;71.56
73681;BME280;61979;53.536;8.082;2022-07-29T02:45:51;102044.47;;;15.51;72.07
73681;BME280;61979;53.536;8.082;2022-07-29T02:47:02;102051.41;;;15.47;72.32
73681;BME280;61979;53.536;8.082;2022-07-29T02:48:11;102059.16;;;15.43;72.14
73681;BME280;61979;53.536;8.082;2022-07-29T02:49:22;102052.25;;;15.46;72.56
73681;BME280;61979;53.536;8.082;2022-07-29T02:50:35;102050.53;;;15.47;71.61
73681;BME280;61979;53.536;8.082;2022-07-29T02:53:56;102051.41;;;15.46;71.82
73681;BME280;61979;53.536;8.082;2022-07-29T02:55:16;102045.41;;;15.45;72.36
73681;BME280;61979;53.536;8.082;2022-07-29T02:56:23;102047.16;;;15.43;72.10
73681;BME280;61979;53.536;8.082;2022-07-29T02:58:40;102054.09;;;15.38;72.44
73681;BME280;61979;53.536;8.082;2022-07-29T02:59:43;102048.97;;;15.35;72.43
73681;BME280;61979;53.536;8.082;2022-07-29T03:00:46;102046.41;;;15.35;72.63
73681;BME280;61979;53.536;8.082;2022-07-29T03:01:48;102050.59;;;15.42;72.23
73681;BME280;61979;53.536;8.082;2022-07-29T03:02:52;102053.97;;;15.47;71.63
73681;BME280;61979;53.536;8.082;2022-07-29T03:03:54;102050.66;;;15.39;71.94
73681;BME280;61979;53.536;8.082;2022-07-29T03:04:55;102052.34;;;15.40;71.96
73681;BME280;61979;53.536;8.082;2022-07-29T03:06:00;102047.25;;;15.34;72.83
73681;BME280;61979;53.536;8.082;2022-07-29T03:07:01;102050.72;;;15.33;72.24
73681;BME280;61979;53.536;8.082;2022-07-29T03:08:05;102048.91;;;15.41;72.20
73681;BME280;61979;53.536;8.082;2022-07-29T03:09:07;102048.09;;;15.38;72.17
73681;BME280;61979;53.536;8.082;2022-07-29T03:10:08;102043.81;;;15.37;72.08
73681;BME280;61979;53.536;8.082;2022-07-29T03:11:09;102044.69;;;15.34;72.28
73681;BME280;61979;53.536;8.082;2022-07-29T03:12:10;102045.56;;;15.35;72.36
73681;BME280;61979;53.536;8.082;2022-07-29T03:13:11;102045.59;;;15.30;72.49
73681;BME280;61979;53.536;8.082;2022-07-29T03:14:13;102038.75;;;15.31;72.60
73681;BME280;61979;53.536;8.082;2022-07-29T03:15:14;102037.91;;;15.27;72.82
73681;BME280;61979;53.536;8.082;2022-07-29T03:16:15;102043.06;;;15.26;72.62
73681;BME280;61979;53.536;8.082;2022-07-29T03:17:16;102048.16;;;15.27;72.36
73681;BME280;61979;53.536;8.082;2022-07-29T03:18:16;102040.56;;;15.21;72.49
73681;BME280;61979;53.536;8.082;2022-07-29T03:19:19;102040.50;;;15.24;72.92
73681;BME280;61979;53.536;8.082;2022-07-29T03:20:23;102045.59;;;15.27;72.84
73681;BME280;61979;53.536;8.082;2022-07-29T03:21:24;102044.72;;;15.30;72.65
73681;BME280;61979;53.536;8.082;2022-07-29T03:22:24;102037.91;;;15.27;73.45
73681;BME280;61979;53.536;8.082;2022-07-29T03:23:25;102045.75;;;15.15;73.23
73681;BME280;61979;53.536;8.082;2022-07-29T03:24:34;102046.53;;;15.20;73.41
73681;BME280;61979;53.536;8.082;2022-07-29T03:25:35;102040.56;;;15.21;73.46
73681;BME280;61979;53.536;8.082;2022-07-29T03:26:35;102041.41;;;15.20;73.41
73681;BME280;61979;53.536;8.082;2022-07-29T03:27:35;102041.34;;;15.26;72.75
73681;BME280;61979;53.536;8.082;2022-07-29T03:28:36;102042.16;;;15.28;72.78
73681;BME280;61979;53.536;8.082;2022-07-29T03:29:36;102043.06;;;15.26;73.07
73681;BME280;61979;53.536;8.082;2022-07-29T03:30:36;102037.88;;;15.29;73.13
73681;BME280;61979;53.536;8.082;2022-07-29T03:31:37;102031.88;;;15.28;72.10
73681;BME280;61979;53.536;8.082;2022-07-29T03:32:38;102034.50;;;15.27;73.26
73681;BME280;61979;53.536;8.082;2022-07-29T03:33:38;102041.31;;;15.32;72.85
73681;BME280;61979;53.536;8.082;2022-07-29T03:34:38;102038.69;;;15.35;72.77
73681;BME280;61979;53.536;8.082;2022-07-29T03:35:39;102037.88;;;15.32;72.90
73681;BME280;61979;53.536;8.082;2022-07-29T03:36:39;102033.59;;;15.34;72.92
73681;BME280;61979;53.536;8.082;2022-07-29T03:37:40;102037.03;;;15.31;72.98
73681;BME280;61979;53.536;8.082;2022-07-29T03:38:42;102035.44;;;15.21;72.93
73681;BME280;61979;53.536;8.082;2022-07-29T03:39:45;102035.44;;;15.21;73.01
73681;BME280;61979;53.536;8.082;2022-07-29T03:40:53;102037.06;;;15.25;73.55
73681;BME280;61979;53.536;8.082;2022-07-29T03:41:55;102032.75;;;15.29;73.21
73681;BME280;61979;53.536;8.082;2022-07-29T03:42:56;102035.31;;;15.30;73.15
73681;BME280;61979;53.536;8.082;2022-07-29T03:43:59;102045.56;;;15.33;73.15
73681;BME280;61979;53.536;8.082;2022-07-29T03:45:05;102032.72;;;15.33;72.50
73681;BME280;61979;53.536;8.082;2022-07-29T03:46:10;102037.88;;;15.30;72.86
73681;BME280;61979;53.536;8.082;2022-07-29T03:47:13;102032.75;;;15.30;72.60
73681;BME280;61979;53.536;8.082;2022-07-29T03:48:16;102037.06;;;15.27;72.49
73681;BME280;61979;53.536;8.082;2022-07-29T03:49:18;102039.63;;;15.27;72.78
73681;BME280;61979;53.536;8.082;2022-07-29T03:50:21;102038.75;;;15.28;72.70
73681;BME280;61979;53.536;8.082;2022-07-29T03:51:21;102031.94;;;15.27;71.89
73681;BME280;61979;53.536;8.082;2022-07-29T03:52:22;102035.31;;;15.30;72.43
73681;BME280;61979;53.536;8.082;2022-07-29T03:53:23;102040.44;;;15.35;72.34
73681;BME280;61979;53.536;8.082;2022-07-29T03:54:23;102035.31;;;15.30;72.41
73681;BME280;61979;53.536;8.082;2022-07-29T03:55:25;102031.91;;;15.31;72.78
73681;BME280;61979;53.536;8.082;2022-07-29T03:56:27;102037.88;;;15.30;72.73
73681;BME280;61979;53.536;8.082;2022-07-29T03:57:28;102044.75;;;15.31;72.25
73681;BME280;61979;53.536;8.082;2022-07-29T03:58:30;102038.69;;;15.35;72.19
73681;BME280;61979;53.536;8.082;2022-07-29T03:59:32;102036.91;;;15.40;72.43
73681;BME280;61979;53.536;8.082;2022-07-29T04:00:37;102037.81;;;15.38;72.56
73681;BME280;61979;53.536;8.082;2022-07-29T04:01:38;102028.38;;;15.38;72.80
73681;BME280;61979;53.536;8.082;2022-07-29T04:02:39;102019.81;;;15.38;72.25
73681;BME280;61979;53.536;8.082;2022-07-29T04:03:40;102031.81;;;15.37;72.50
73681;BME280;61979;53.536;8.082;2022-07-29T04:04:40;102034.38;;;15.37;72.08
73681;BME280;61979;53.536;8.082;2022-07-29T04:05:41;102024.91;;;15.42;71.73
73681;BME280;61979;53.536;8.082;2022-07-29T04:06:42;102028.28;;;15.47;71.46
73681;BME280;61979;53.536;8.082;2022-07-29T04:07:45;102021.41;;;15.46;71.92
73681;BME280;61979;53.536;8.082;2022-07-29T04:08:45;102028.28;;;15.47;72.00
73681;BME280;61979;53.536;8.082;2022-07-29T04:09:46;102021.41;;;15.46;71.54
73681;BME280;61979;53.536;8.082;2022-07-29T04:10:46;102030.84;;;15.44;71.28
73681;BME280;61979;53.536;8.082;2022-07-29T04:11:47;102023.13;;;15.46;71.78
73681;BME280;61979;53.536;8.082;2022-07-29T04:12:47;102026.53;;;15.49;71.71
73681;BME280;61979;53.536;8.082;2022-07-29T04:13:48;102026.53;;;15.49;71.04
73681;BME280;61979;53.536;8.082;2022-07-29T04:14:48;102017.06;;;15.50;71.17
73681;BME280;61979;53.536;8.082;2022-07-29T04:15:50;102017.88;;;15.53;70.91
73681;BME280;61979;53.536;8.082;2022-07-29T04:16:50;102020.44;;;15.53;70.45
73681;BME280;61979;53.536;8.082;2022-07-29T04:17:51;102021.31;;;15.52;70.85
73681;BME280;61979;53.536;8.082;2022-07-29T04:18:51;102025.66;;;15.50;70.74
73681;BME280;61979;53.536;8.082;2022-07-29T04:19:51;102020.44;;;15.55;71.24
73681;BME280;61979;53.536;8.082;2022-07-29T04:20:52;102025.59;;;15.55;70.72
73681;BME280;61979;53.536;8.082;2022-07-29T04:21:52;102026.47;;;15.52;70.69
73681;BME280;61979;53.536;8.082;2022-07-29T04:22:53;102025.59;;;15.55;70.54
73681;BME280;61979;53.536;8.082;2022-07-29T04:23:53;102028.13;;;15.56;70.29
73681;BME280;61979;53.536;8.082;2022-07-29T04:24:53;102026.38;;;15.60;70.49
73681;BME280;61979;53.536;8.082;2022-07-29T04:25:54;102019.50;;;15.60;70.09
73681;BME280;61979;53.536;8.082;2022-07-29T04:26:54;102030.59;;;15.62;69.99
73681;BME280;61979;53.536;8.082;2022-07-29T04:27:54;102025.47;;;15.62;69.72
73681;BME280;61979;53.536;8.082;2022-07-29T04:29:01;102025.44;;;15.65;70.32
73681;BME280;61979;53.536;8.082;2022-07-29T04:30:01;102031.47;;;15.64;69.92
73681;BME280;61979;53.536;8.082;2022-07-29T04:31:02;102024.56;;;15.66;69.97
73681;BME280;61979;53.536;8.082;2022-07-29T04:32:02;102024.56;;;15.66;70.53
73681;BME280;61979;53.536;8.082;2022-07-29T04:33:04;102024.44;;;15.74;69.33
73681;BME280;61979;53.536;8.082;2022-07-29T04:34:04;102022.69;;;15.77;69.60
73681;BME280;61979;53.536;8.082;2022-07-29T04:35:05;102020.13;;;15.76;69.64
73681;BME280;61979;53.536;8.082;2022-07-29T04:36:05;102014.97;;;15.76;69.04
73681;BME280;61979;53.536;8.082;2022-07-29T04:37:06;102023.56;;;15.76;69.71
73681;BME280;61979;53.536;8.082;2022-07-29T04:38:06;102020.91;;;15.82;69.81
73681;BME280;61979;53.536;8.082;2022-07-29T04:39:07;102021.72;;;15.83;69.51
73681;BME280;61979;53.536;8.082;2022-07-29T04:40:08;102025.84;;;15.93;69.30
73681;BME280;61979;53.536;8.082;2022-07-29T04:41:08;102016.44;;;15.93;69.38
73681;BME280;61979;53.536;8.082;2022-07-29T04:42:08;102020.75;;;15.91;69.56
73681;BME280;61979;53.536;8.082;2022-07-29T04:43:09;102023.34;;;15.88;69.29
73681;BME280;61979;53.536;8.082;2022-07-29T04:44:09;102018.34;;;15.81;69.77
73681;BME280;61979;53.536;8.082;2022-07-29T04:45:10;102019.16;;;15.84;69.43
73681;BME280;61979;53.536;8.082;2022-07-29T04:46:10;102020.03;;;15.83;69.83
73681;BME280;61979;53.536;8.082;2022-07-29T04:47:10;102014.81;;;15.89;69.39
73681;BME280;61979;53.536;8.082;2022-07-29T04:48:11;102009.63;;;15.91;69.32
73681;BME280;61979;53.536;8.082;2022-07-29T04:49:11;102018.13;;;15.94;69.67
73681;BME280;61979;53.536;8.082;2022-07-29T04:50:11;102012.13;;;15.95;69.42
73681;BME280;61979;53.536;8.082;2022-07-29T04:51:12;102011.28;;;15.93;69.36
73681;BME280;61979;53.536;8.082;2022-07-29T04:52:13;102013.94;;;15.87;69.68
73681;BME280;61979;53.536;8.082;2022-07-29T04:53:13;102018.13;;;15.94;69.96
73681;BME280;61979;53.536;8.082;2022-07-29T04:54:13;102013.03;;;15.91;69.91
73681;BME280;61979;53.536;8.082;2022-07-29T04:55:14;102011.31;;;15.92;69.58
73681;BME280;61979;53.536;8.082;2022-07-29T04:56:14;102019.09;;;15.87;69.75
73681;BME280;61979;53.536;8.082;2022-07-29T04:57:15;102022.47;;;15.92;69.83
73681;BME280;61979;53.536;8.082;2022-07-29T04:58:15;102016.41;;;15.95;69.91
73681;BME280;61979;53.536;8.082;2022-07-29T04:59:15;102017.31;;;15.94;69.40
73681;BME280;61979;53.536;8.082;2022-07-29T05:00:16;102012.22;;;15.89;70.04
73681;BME280;61979;53.536;8.082;2022-07-29T05:01:16;102012.13;;;15.95;69.64
73681;BME280;61979;53.536;8.082;2022-07-29T05:02:17;102015.56;;;15.94;69.65
73681;BME280;61979;53.536;8.082;2022-07-29T05:03:17;102015.63;;;15.91;69.53
73681;BME280;61979;53.536;8.082;2022-07-29T05:04:18;102012.22;;;15.89;69.65
73681;BME280;61979;53.536;8.082;2022-07-29T05:05:18;102017.44;;;15.83;69.84
73681;BME280;61979;53.536;8.082;2022-07-29T05:06:19;102009.81;;;15.79;69.94
73681;BME280;61979;53.536;8.082;2022-07-29T05:07:19;102019.97;;;15.85;69.96
73681;BME280;61979;53.536;8.082;2022-07-29T05:08:20;102018.94;;;15.96;70.02
73681;BME280;61979;53.536;8.082;2022-07-29T05:09:20;102015.66;;;15.88;69.81
73681;BME280;61979;53.536;8.082;2022-07-29T05:10:20;102014.97;;;15.77;70.24
73681;BME280;61979;53.536;8.082;2022-07-29T05:11:21;102025.09;;;15.89;69.61
73681;BME280;61979;53.536;8.082;2022-07-29T05:12:21;102019.16;;;15.83;69.92
73681;BME280;61979;53.536;8.082;2022-07-29T05:13:21;102019.09;;;15.87;70.14
73681;BME280;61979;53.536;8.082;2022-07-29T05:14:22;102022.53;;;15.86;69.90
73681;BME280;61979;53.536;8.082;2022-07-29T05:15:22;102016.59;;;15.83;70.28
73681;BME280;61979;53.536;8.082;2022-07-29T05:16:22;102019.06;;;15.89;69.05
73681;BME280;61979;53.536;8.082;2022-07-29T05:17:23;102020.75;;;15.91;70.16
73681;BME280;61979;53.536;8.082;2022-07-29T05:18:26;102015.56;;;15.94;70.13
73681;BME280;61979;53.536;8.082;2022-07-29T05:19:27;102013.78;;;15.99;69.91
73681;BME280;61979;53.536;8.082;2022-07-29T05:20:28;102008.56;;;16.02;69.47
73681;BME280;61979;53.536;8.082;2022-07-29T05:21:29;102021.50;;;15.98;70.15
73681;BME280;61979;53.536;8.082;2022-07-29T05:22:29;102016.38;;;15.98;69.75
73681;BME280;61979;53.536;8.082;2022-07-29T05:23:30;102018.00;;;16.02;69.78
73681;BME280;61979;53.536;8.082;2022-07-29T05:24:31;102021.38;;;16.05;69.73
73681;BME280;61979;53.536;8.082;2022-07-29T05:25:31;102010.41;;;15.94;69.88
73681;BME280;61979;53.536;8.082;2022-07-29T05:26:31;102019.81;;;15.97;70.37
73681;BME280;61979;53.536;8.082;2022-07-29T05:27:32;102024.00;;;16.02;69.78
73681;BME280;61979;53.536;8.082;2022-07-29T05:28:34;102021.50;;;15.98;70.19
73681;BME280;61979;53.536;8.082;2022-07-29T05:29:35;102017.22;;;15.98;70.12
73681;BME280;61979;53.536;8.082;2022-07-29T05:30:35;102021.50;;;15.98;70.08
73681;BME280;61979;53.536;8.082;2022-07-29T05:31:36;102017.97;;;16.05;69.84
73681;BME280;61979;53.536;8.082;2022-07-29T05:32:36;102021.59;;;15.92;70.06
73681;BME280;61979;53.536;8.082;2022-07-29T05:33:37;102023.19;;;16.00;70.45
73681;BME280;61979;53.536;8.082;2022-07-29T05:34:37;102022.97;;;16.14;69.54
73681;BME280;61979;53.536;8.082;2022-07-29T05:35:38;102018.84;;;16.02;69.83
73681;BME280;61979;53.536;8.082;2022-07-29T05:36:38;102022.22;;;16.07;70.26
73681;BME280;61979;53.536;8.082;2022-07-29T05:37:39;102022.31;;;16.01;69.71
73681;BME280;61979;53.536;8.082;2022-07-29T05:38:40;102018.88;;;16.01;70.45
73681;BME280;61979;53.536;8.082;2022-07-29T05:39:40;102015.34;;;16.08;69.89